createdAt,value
2023-04-24T00:00:07.331Z,11.45
2023-04-24T00:02:34.302Z,11.42
2023-04-24T00:05:04.082Z,11.39
2023-04-24T00:07:31.218Z,11.36
2023-04-24T00:09:58.063Z,11.34
2023-04-24T00:12:25.367Z,11.31
2023-04-24T00:14:52.274Z,11.27
2023-04-24T00:17:21.168Z,11.25
2023-04-24T00:19:48.623Z,11.23
2023-04-24T00:22:15.619Z,11.22
2023-04-24T00:24:42.510Z,11.22
2023-04-24T00:27:09.259Z,11.22
2023-04-24T00:29:36.200Z,11.20
2023-04-24T00:32:03.095Z,11.18
2023-04-24T00:34:30.014Z,11.16
2023-04-24T00:36:57.059Z,11.14
2023-04-24T00:39:24.178Z,11.11
2023-04-24T00:41:51.964Z,11.11
2023-04-24T00:44:18.779Z,11.10
2023-04-24T00:46:45.720Z,11.11
2023-04-24T00:49:13.190Z,11.10
2023-04-24T00:51:41.921Z,11.09
2023-04-24T00:54:08.931Z,11.08
2023-04-24T00:56:35.976Z,11.06
2023-04-24T00:59:02.691Z,11.05
2023-04-24T01:01:29.615Z,11.05
2023-04-24T01:03:57.358Z,11.04
2023-04-24T01:06:24.498Z,11.04
2023-04-24T01:08:51.413Z,11.05
2023-04-24T01:11:18.124Z,11.04
2023-04-24T01:13:46.204Z,11.03
2023-04-24T01:16:13.121Z,11.01
2023-04-24T01:18:40.128Z,10.99
2023-04-24T01:21:07.058Z,10.99
2023-04-24T01:23:33.901Z,10.98
2023-04-24T01:26:01.180Z,10.96
2023-04-24T01:28:27.981Z,10.94
2023-04-24T01:30:54.831Z,10.93
2023-04-24T01:33:23.645Z,10.92
2023-04-24T01:35:50.581Z,10.91
2023-04-24T01:38:17.515Z,10.90
2023-04-24T01:40:44.361Z,10.87
2023-04-24T01:43:11.108Z,10.85
2023-04-24T01:45:38.057Z,10.80
2023-04-24T01:48:05.029Z,10.77
2023-04-24T01:50:31.972Z,10.74
2023-04-24T01:52:58.883Z,10.73
2023-04-24T01:55:25.658Z,10.71
2023-04-24T01:57:53.486Z,10.68
2023-04-24T02:00:20.442Z,10.66
2023-04-24T02:02:48.453Z,10.63
2023-04-24T02:05:16.065Z,10.61
2023-04-24T02:07:42.944Z,10.59
2023-04-24T02:10:10.358Z,10.58
2023-04-24T02:12:37.247Z,10.55
2023-04-24T02:15:04.448Z,10.50
2023-04-24T02:17:31.987Z,10.44
2023-04-24T02:19:59.057Z,10.40
2023-04-24T02:22:25.900Z,10.38
2023-04-24T02:24:52.649Z,10.37
2023-04-24T02:27:19.588Z,10.37
2023-04-24T02:29:47.349Z,10.36
2023-04-24T02:32:16.834Z,10.34
2023-04-24T02:34:43.926Z,10.28
2023-04-24T02:37:11.051Z,10.22
2023-04-24T02:39:37.896Z,10.17
2023-04-24T02:42:04.834Z,10.13
2023-04-24T02:44:31.680Z,10.12
2023-04-24T02:46:58.454Z,10.10
2023-04-24T02:49:25.360Z,10.10
2023-04-24T02:51:52.137Z,10.11
2023-04-24T02:54:18.954Z,10.14
2023-04-24T02:56:45.892Z,10.17
2023-04-24T02:59:12.801Z,10.16
2023-04-24T03:01:39.842Z,10.16
2023-04-24T03:04:07.004Z,10.14
2023-04-24T03:06:36.593Z,10.13
2023-04-24T03:09:04.751Z,10.13
2023-04-24T03:11:32.781Z,10.13
2023-04-24T03:13:59.622Z,10.12
2023-04-24T03:16:27.081Z,10.12
2023-04-24T03:18:55.915Z,10.13
2023-04-24T03:21:23.845Z,10.14
2023-04-24T03:23:50.885Z,10.16
2023-04-24T03:26:18.139Z,10.18
2023-04-24T03:28:54.708Z,10.26
2023-04-24T03:31:22.375Z,10.39
2023-04-24T03:33:49.520Z,10.59
2023-04-24T03:36:16.638Z,10.91
2023-04-24T03:38:44.304Z,11.26
2023-04-24T03:41:33.090Z,11.60
2023-04-24T03:44:19.385Z,11.94
2023-04-24T03:46:46.480Z,12.13
2023-04-24T03:49:13.675Z,12.24
2023-04-24T03:51:43.094Z,12.41
2023-04-24T03:54:16.177Z,12.54
2023-04-24T03:56:43.095Z,12.61
2023-04-24T03:59:10.476Z,12.68
2023-04-24T04:01:39.077Z,12.80
2023-04-24T04:04:14.209Z,12.99
2023-04-24T04:06:41.554Z,13.27
2023-04-24T04:09:09.823Z,13.81
2023-04-24T04:11:37.101Z,14.68
2023-04-24T04:14:03.887Z,15.47
2023-04-24T04:16:31.107Z,15.74
2023-04-24T04:19:07.294Z,15.62
2023-04-24T04:21:37.770Z,15.37
2023-04-24T04:24:17.203Z,15.22
2023-04-24T04:26:49.070Z,15.41
2023-04-24T04:29:29.634Z,15.67
2023-04-24T04:31:56.721Z,15.95
2023-04-24T04:34:24.358Z,16.02
2023-04-24T04:36:51.785Z,15.93
2023-04-24T04:39:31.743Z,15.69
2023-04-24T04:42:07.994Z,15.40
2023-04-24T04:44:41.017Z,15.10
2023-04-24T04:47:10.021Z,14.84
2023-04-24T04:49:39.613Z,14.65
2023-04-24T04:52:09.805Z,14.60
2023-04-24T04:54:37.059Z,14.66
2023-04-24T04:57:04.433Z,14.83
2023-04-24T04:59:31.692Z,15.01
2023-04-24T05:02:03.255Z,15.31
2023-04-24T05:04:31.982Z,15.67
2023-04-24T05:06:59.395Z,16.22
2023-04-24T05:09:28.402Z,16.87
2023-04-24T05:11:58.472Z,17.45
2023-04-24T05:14:26.242Z,18.14
2023-04-24T05:16:53.762Z,19.30
2023-04-24T05:19:21.650Z,20.59
2023-04-24T05:21:48.532Z,21.61
2023-04-24T05:24:15.456Z,22.26
2023-04-24T05:27:17.418Z,22.92
2023-04-24T05:29:45.152Z,23.78
2023-04-24T05:32:12.758Z,24.61
2023-04-24T05:34:39.797Z,25.23
2023-04-24T05:37:09.305Z,25.86
2023-04-24T05:39:37.060Z,26.48
2023-04-24T05:42:05.640Z,27.05
2023-04-24T05:44:32.486Z,27.42
2023-04-24T05:46:59.945Z,27.64
2023-04-24T05:49:26.989Z,27.93
2023-04-24T05:51:54.497Z,28.32
2023-04-24T05:54:21.391Z,28.71
2023-04-24T05:56:48.272Z,28.95
2023-04-24T05:59:20.053Z,28.93
2023-04-24T06:01:47.404Z,28.74
2023-04-24T06:04:17.542Z,28.56
2023-04-24T06:06:44.443Z,28.44
2023-04-24T06:09:11.460Z,28.32
2023-04-24T06:11:38.416Z,28.05
2023-04-24T06:14:05.689Z,27.65
2023-04-24T06:16:40.019Z,27.08
2023-04-24T06:19:15.513Z,26.39
2023-04-24T06:21:42.383Z,25.74
2023-04-24T06:24:09.303Z,25.12
2023-04-24T06:26:36.357Z,24.56
2023-04-24T06:29:03.295Z,24.04
2023-04-24T06:31:30.095Z,23.49
2023-04-24T06:33:57.083Z,23.06
2023-04-24T06:36:24.651Z,22.70
2023-04-24T06:38:51.453Z,22.39
2023-04-24T06:41:18.346Z,22.14
2023-04-24T06:43:46.015Z,21.93
2023-04-24T06:46:13.183Z,21.79
2023-04-24T06:48:40.623Z,21.66
2023-04-24T06:51:07.432Z,21.55
2023-04-24T06:53:34.455Z,21.41
2023-04-24T06:56:01.547Z,21.17
2023-04-24T06:58:28.792Z,21.03
2023-04-24T07:00:55.645Z,20.94
2023-04-24T07:03:22.861Z,20.83
2023-04-24T07:05:50.541Z,20.68
2023-04-24T07:08:18.818Z,20.63
2023-04-24T07:10:46.200Z,20.57
2023-04-24T07:13:13.129Z,20.43
2023-04-24T07:15:41.036Z,20.25
2023-04-24T07:18:08.112Z,20.13
2023-04-24T07:20:35.404Z,19.96
2023-04-24T07:23:02.946Z,19.78
2023-04-24T07:25:29.893Z,19.64
2023-04-24T07:27:56.621Z,19.57
2023-04-24T07:30:23.442Z,19.58
2023-04-24T07:32:50.405Z,19.57
2023-04-24T07:35:17.336Z,19.44
2023-04-24T07:37:47.046Z,19.28
2023-04-24T07:40:14.639Z,19.21
2023-04-24T07:42:41.619Z,19.23
2023-04-24T07:45:08.473Z,19.25
2023-04-24T07:47:35.444Z,19.27
2023-04-24T07:50:02.363Z,19.26
2023-04-24T07:52:29.099Z,19.19
2023-04-24T07:54:59.533Z,19.07
2023-04-24T07:57:26.515Z,18.98
2023-04-24T07:59:53.394Z,19.00
2023-04-24T08:02:20.260Z,19.12
2023-04-24T08:04:47.279Z,19.20
2023-04-24T08:07:14.365Z,19.23
2023-04-24T08:09:41.270Z,19.14
2023-04-24T08:12:08.084Z,19.05
2023-04-24T08:14:34.775Z,19.00
2023-04-24T08:17:02.375Z,18.95
2023-04-24T08:19:29.225Z,18.90
2023-04-24T08:21:56.177Z,18.85
2023-04-24T08:24:23.320Z,18.77
2023-04-24T08:26:55.107Z,18.67
2023-04-24T08:29:22.034Z,18.58
2023-04-24T08:31:48.880Z,18.47
2023-04-24T08:34:15.705Z,18.41
2023-04-24T08:36:46.948Z,18.34
2023-04-24T08:39:15.483Z,18.30
2023-04-24T08:41:44.363Z,18.33
2023-04-24T08:44:11.380Z,18.36
2023-04-24T08:46:38.341Z,18.39
2023-04-24T08:49:05.900Z,18.39
2023-04-24T08:51:32.729Z,18.38
2023-04-24T08:53:59.568Z,18.37
2023-04-24T08:56:26.282Z,18.22
2023-04-24T08:58:53.252Z,18.02
2023-04-24T09:01:23.412Z,17.87
2023-04-24T09:03:51.084Z,17.79
2023-04-24T09:06:18.843Z,17.79
2023-04-24T09:08:46.398Z,17.86
2023-04-24T09:11:13.303Z,17.88
2023-04-24T09:13:40.138Z,17.80
2023-04-24T09:16:07.337Z,17.77
2023-04-24T09:18:36.361Z,17.71
2023-04-24T09:21:04.992Z,17.66
2023-04-24T09:23:32.049Z,17.59
2023-04-24T09:25:59.784Z,17.52
2023-04-24T09:28:33.789Z,17.45
2023-04-24T09:31:11.035Z,17.37
2023-04-24T09:33:38.134Z,17.30
2023-04-24T09:36:05.485Z,17.23
2023-04-24T09:38:36.370Z,17.17
2023-04-24T09:41:04.578Z,17.10
2023-04-24T09:43:31.574Z,17.03
2023-04-24T09:45:59.780Z,17.01
2023-04-24T09:48:33.463Z,16.99
2023-04-24T09:51:01.939Z,16.97
2023-04-24T09:53:28.944Z,16.96
2023-04-24T09:55:55.989Z,16.94
2023-04-24T09:58:27.496Z,16.92
2023-04-24T10:00:54.794Z,16.91
2023-04-24T10:03:21.800Z,16.88
2023-04-24T10:05:48.789Z,16.82
2023-04-24T10:08:15.632Z,16.75
2023-04-24T10:10:46.321Z,16.67
2023-04-24T10:13:14.033Z,16.61
2023-04-24T10:15:41.817Z,16.59
2023-04-24T10:18:09.633Z,16.60
2023-04-24T10:20:37.146Z,16.61
2023-04-24T10:23:04.170Z,16.63
2023-04-24T10:25:31.866Z,16.64
2023-04-24T10:28:00.633Z,16.62
2023-04-24T10:30:28.190Z,16.60
2023-04-24T10:32:55.476Z,16.59
2023-04-24T10:35:25.145Z,16.59
2023-04-24T10:37:53.230Z,16.60
2023-04-24T10:40:20.410Z,16.61
2023-04-24T10:42:50.918Z,16.63
2023-04-24T10:45:22.852Z,16.63
2023-04-24T10:47:59.587Z,16.63
2023-04-24T10:50:27.763Z,16.63
2023-04-24T10:52:56.759Z,16.65
2023-04-24T10:55:43.013Z,16.69
2023-04-24T10:58:09.832Z,16.75
2023-04-24T11:00:40.129Z,16.83
2023-04-24T11:03:07.818Z,16.91
2023-04-24T11:05:53.087Z,17.03
2023-04-24T11:08:30.175Z,17.12
2023-04-24T11:10:58.751Z,17.21
2023-04-24T11:13:26.768Z,17.31
2023-04-24T11:16:12.878Z,17.42
2023-04-24T11:18:41.228Z,17.53
2023-04-24T11:21:13.188Z,17.60
2023-04-24T11:23:40.712Z,17.66
2023-04-24T11:26:14.082Z,17.73
2023-04-24T11:28:50.200Z,17.76
2023-04-24T11:31:55.745Z,17.77
2023-04-24T11:34:22.886Z,17.73
2023-04-24T11:36:49.805Z,17.72
2023-04-24T11:39:16.580Z,17.74
2023-04-24T11:41:43.491Z,17.75
2023-04-24T11:44:10.398Z,17.73
2023-04-24T11:46:39.035Z,17.69
2023-04-24T11:49:06.789Z,17.68
2023-04-24T11:51:43.939Z,17.66
2023-04-24T11:54:15.216Z,17.65
2023-04-24T11:56:46.176Z,17.65
2023-04-24T11:59:13.307Z,17.65
2023-04-24T12:01:44.038Z,17.67
2023-04-24T12:04:11.076Z,17.70
2023-04-24T12:06:38.029Z,17.73
2023-04-24T12:09:17.391Z,17.74
2023-04-24T12:11:56.765Z,17.73
2023-04-24T12:14:23.784Z,17.69
2023-04-24T12:16:53.715Z,17.69
2023-04-24T12:19:23.622Z,17.71
2023-04-24T12:22:03.629Z,17.72
2023-04-24T12:24:31.297Z,17.69
2023-04-24T12:26:59.171Z,17.69
2023-04-24T12:29:26.109Z,17.70
2023-04-24T12:31:53.055Z,17.69
2023-04-24T12:34:21.350Z,17.69
2023-04-24T12:36:48.579Z,17.67
2023-04-24T12:39:16.442Z,17.61
2023-04-24T12:41:57.965Z,17.58
2023-04-24T12:44:35.584Z,17.56
2023-04-24T12:47:02.707Z,17.53
2023-04-24T12:49:31.348Z,17.49
2023-04-24T12:51:58.451Z,17.42
2023-04-24T12:54:25.381Z,17.39
2023-04-24T12:56:52.296Z,17.36
2023-04-24T12:59:19.041Z,17.34
2023-04-24T13:01:46.022Z,17.33
2023-04-24T13:04:12.954Z,17.32
2023-04-24T13:06:39.961Z,17.33
2023-04-24T13:09:06.789Z,17.36
2023-04-24T13:11:33.554Z,17.38
2023-04-24T13:14:00.603Z,17.40
2023-04-24T13:16:27.391Z,17.41
2023-04-24T13:18:54.317Z,17.35
2023-04-24T13:21:21.250Z,17.29
2023-04-24T13:23:48.034Z,17.24
2023-04-24T13:26:14.812Z,17.19
2023-04-24T13:28:41.581Z,17.17
2023-04-24T13:31:08.497Z,17.17
2023-04-24T13:33:35.332Z,17.19
2023-04-24T13:36:02.189Z,17.21
2023-04-24T13:38:29.031Z,17.23
2023-04-24T13:40:56.074Z,17.27
2023-04-24T13:43:22.824Z,17.27
2023-04-24T13:45:49.753Z,17.28
2023-04-24T13:48:16.583Z,17.30
2023-04-24T13:50:44.175Z,17.32
2023-04-24T13:53:11.217Z,17.36
2023-04-24T13:55:38.401Z,17.39
2023-04-24T13:58:05.305Z,17.41
2023-04-24T14:00:32.126Z,17.42
2023-04-24T14:02:59.144Z,17.42
2023-04-24T14:05:26.435Z,17.41
2023-04-24T14:07:53.316Z,17.41
2023-04-24T14:10:20.456Z,17.43
2023-04-24T14:12:47.394Z,17.45
2023-04-24T14:15:14.577Z,17.45
2023-04-24T14:17:41.418Z,17.44
2023-04-24T14:20:08.572Z,17.43
2023-04-24T14:22:35.578Z,17.41
2023-04-24T14:25:02.617Z,17.37
2023-04-24T14:27:29.389Z,17.33
2023-04-24T14:29:56.718Z,17.27
2023-04-24T14:32:23.698Z,17.23
2023-04-24T14:34:50.651Z,17.21
2023-04-24T14:37:17.673Z,17.19
2023-04-24T14:39:46.107Z,17.20
2023-04-24T14:42:18.417Z,17.22
2023-04-24T14:44:45.675Z,17.22
2023-04-24T14:47:12.664Z,17.20
2023-04-24T14:49:39.851Z,17.16
2023-04-24T14:52:06.803Z,17.15
2023-04-24T14:54:33.667Z,17.15
2023-04-24T14:57:02.439Z,17.16
2023-04-24T14:59:29.986Z,17.18
2023-04-24T15:02:12.591Z,17.20
2023-04-24T15:04:48.240Z,17.24
2023-04-24T15:07:16.422Z,17.25
2023-04-24T15:09:44.034Z,17.27
2023-04-24T15:12:13.418Z,17.28
2023-04-24T15:14:40.392Z,17.27
2023-04-24T15:17:07.232Z,17.24
2023-04-24T15:19:34.115Z,17.20
2023-04-24T15:22:01.085Z,17.17
2023-04-24T15:24:28.138Z,17.11
2023-04-24T15:26:55.099Z,17.06
2023-04-24T15:29:21.889Z,16.99
2023-04-24T15:31:48.733Z,16.92
2023-04-24T15:34:15.697Z,16.83
2023-04-24T15:36:42.489Z,16.75
2023-04-24T15:39:11.922Z,16.65
2023-04-24T15:41:39.078Z,16.56
2023-04-24T15:44:06.531Z,16.47
2023-04-24T15:46:34.447Z,16.38
2023-04-24T15:49:01.346Z,16.30
2023-04-24T15:51:28.183Z,16.23
2023-04-24T15:53:55.130Z,16.14
2023-04-24T15:56:22.613Z,16.02
2023-04-24T15:58:49.705Z,15.92
2023-04-24T16:01:16.833Z,15.83
2023-04-24T16:03:43.941Z,15.77
2023-04-24T16:06:11.117Z,15.73
2023-04-24T16:08:38.026Z,15.68
2023-04-24T16:11:04.896Z,15.61
2023-04-24T16:13:32.228Z,15.51
2023-04-24T16:15:59.091Z,15.42
2023-04-24T16:18:26.216Z,15.37
2023-04-24T16:20:52.924Z,15.32
2023-04-24T16:23:34.158Z,15.25
2023-04-24T16:26:10.686Z,15.19
2023-04-24T16:28:39.233Z,15.09
2023-04-24T16:31:08.209Z,14.98
2023-04-24T16:33:34.999Z,14.91
2023-04-24T16:36:01.865Z,14.87
2023-04-24T16:38:28.681Z,14.87
2023-04-24T16:40:55.756Z,14.87
2023-04-24T16:43:22.603Z,14.87
2023-04-24T16:45:49.448Z,14.88
2023-04-24T16:48:16.285Z,14.89
2023-04-24T16:50:43.014Z,14.90
2023-04-24T16:53:09.795Z,14.89
2023-04-24T16:55:36.599Z,14.89
2023-04-24T16:58:03.447Z,14.88
2023-04-24T17:00:30.468Z,14.89
2023-04-24T17:02:59.327Z,14.89
2023-04-24T17:05:26.916Z,14.87
2023-04-24T17:07:53.669Z,14.86
2023-04-24T17:10:20.477Z,14.85
2023-04-24T17:12:47.364Z,14.85
2023-04-24T17:15:14.681Z,14.85
2023-04-24T17:17:44.300Z,14.83
2023-04-24T17:20:21.997Z,14.81
2023-04-24T17:22:49.992Z,14.78
2023-04-24T17:25:16.868Z,14.73
2023-04-24T17:27:44.355Z,14.70
2023-04-24T17:30:11.596Z,14.67
2023-04-24T17:32:38.613Z,14.63
2023-04-24T17:35:05.954Z,14.59
2023-04-24T17:37:33.433Z,14.54
2023-04-24T17:40:00.352Z,14.50
2023-04-24T17:42:27.121Z,14.47
2023-04-24T17:44:57.059Z,14.45
2023-04-24T17:47:26.275Z,14.44
2023-04-24T17:49:53.350Z,14.43
2023-04-24T17:52:20.302Z,14.42
2023-04-24T17:54:47.053Z,14.41
2023-04-24T17:57:13.980Z,14.41
2023-04-24T17:59:41.384Z,14.42
2023-04-24T18:02:08.268Z,14.43
2023-04-24T18:04:35.258Z,14.43
2023-04-24T18:07:02.176Z,14.42
2023-04-24T18:09:29.140Z,14.42
2023-04-24T18:11:57.197Z,14.43
2023-04-24T18:14:24.183Z,14.43
2023-04-24T18:16:50.951Z,14.43
2023-04-24T18:19:17.746Z,14.42
2023-04-24T18:21:44.520Z,14.43
2023-04-24T18:24:11.385Z,14.43
2023-04-24T18:26:38.241Z,14.44
2023-04-24T18:29:04.994Z,14.44
2023-04-24T18:31:32.760Z,14.44
2023-04-24T18:33:59.744Z,14.43
2023-04-24T18:36:26.645Z,14.43
2023-04-24T18:38:53.482Z,14.41
2023-04-24T18:41:20.628Z,14.39
2023-04-24T18:43:48.031Z,14.37
2023-04-24T18:46:15.191Z,14.35
2023-04-24T18:48:41.978Z,14.30
2023-04-24T18:51:10.046Z,14.26
2023-04-24T18:53:36.804Z,14.22
2023-04-24T18:56:03.841Z,14.19
2023-04-24T18:58:30.784Z,14.18
2023-04-24T19:00:57.914Z,14.16
2023-04-24T19:03:25.052Z,14.13
2023-04-24T19:05:51.926Z,14.07
2023-04-24T19:08:18.669Z,14.00
2023-04-24T19:10:45.503Z,13.96
2023-04-24T19:13:12.345Z,13.92
2023-04-24T19:15:40.414Z,13.88
2023-04-24T19:18:07.515Z,13.83
2023-04-24T19:20:34.422Z,13.78
2023-04-24T19:23:01.289Z,13.72
2023-04-24T19:25:28.099Z,13.64
2023-04-24T19:27:55.054Z,13.58
2023-04-24T19:30:21.981Z,13.52
2023-04-24T19:32:48.983Z,13.48
2023-04-24T19:35:16.026Z,13.45
2023-04-24T19:37:42.828Z,13.45
2023-04-24T19:40:10.897Z,13.44
2023-04-24T19:42:43.896Z,13.42
2023-04-24T19:45:12.333Z,13.39
2023-04-24T19:47:39.347Z,13.37
2023-04-24T19:50:10.070Z,13.36
2023-04-24T19:52:36.985Z,13.35
2023-04-24T19:55:04.209Z,13.35
2023-04-24T19:57:31.185Z,13.35
2023-04-24T19:59:58.130Z,13.35
2023-04-24T20:02:25.314Z,13.36
2023-04-24T20:04:52.508Z,13.36
2023-04-24T20:07:19.608Z,13.37
2023-04-24T20:09:46.441Z,13.38
2023-04-24T20:12:13.400Z,13.39
2023-04-24T20:14:40.535Z,13.40
2023-04-24T20:17:07.970Z,13.41
2023-04-24T20:19:34.903Z,13.41
2023-04-24T20:22:01.960Z,13.41
2023-04-24T20:24:28.902Z,13.41
2023-04-24T20:26:57.178Z,13.41
2023-04-24T20:29:24.124Z,13.39
2023-04-24T20:31:50.911Z,13.37
2023-04-24T20:34:17.820Z,13.36
2023-04-24T20:36:49.460Z,13.35
2023-04-24T20:39:17.144Z,13.32
2023-04-24T20:41:46.457Z,13.29
2023-04-24T20:44:14.316Z,13.26
2023-04-24T20:46:41.182Z,13.23
2023-04-24T20:49:08.089Z,13.20
2023-04-24T20:51:35.056Z,13.17
2023-04-24T20:54:01.970Z,13.16
2023-04-24T20:56:28.812Z,13.14
2023-04-24T20:58:57.181Z,13.12
2023-04-24T21:01:24.678Z,13.10
2023-04-24T21:03:52.805Z,13.09
2023-04-24T21:06:21.884Z,13.09
2023-04-24T21:08:48.764Z,13.09
2023-04-24T21:11:15.608Z,13.08
2023-04-24T21:13:42.339Z,13.07
2023-04-24T21:16:09.318Z,13.05
2023-04-24T21:18:41.227Z,13.04
2023-04-24T21:21:09.061Z,13.01
2023-04-24T21:23:36.297Z,12.98
2023-04-24T21:26:06.209Z,12.96
2023-04-24T21:28:33.079Z,12.92
2023-04-24T21:31:00.269Z,12.88
2023-04-24T21:33:27.023Z,12.84
2023-04-24T21:35:53.960Z,12.78
2023-04-24T21:38:23.418Z,12.73
2023-04-24T21:40:50.893Z,12.69
2023-04-24T21:43:18.744Z,12.65
2023-04-24T21:45:45.974Z,12.63
2023-04-24T21:48:12.815Z,12.61
2023-04-24T21:50:40.042Z,12.55
2023-04-24T21:53:07.301Z,12.46
2023-04-24T21:55:34.217Z,12.38
2023-04-24T21:58:00.960Z,12.31
2023-04-24T22:00:27.760Z,12.28
2023-04-24T22:02:54.712Z,12.28
2023-04-24T22:05:21.808Z,12.30
2023-04-24T22:07:50.809Z,12.33
2023-04-24T22:10:17.870Z,12.35
2023-04-24T22:12:44.804Z,12.34
2023-04-24T22:15:11.775Z,12.34
2023-04-24T22:17:39.794Z,12.36
2023-04-24T22:20:07.592Z,12.38
2023-04-24T22:22:34.893Z,12.39
2023-04-24T22:25:01.953Z,12.40
2023-04-24T22:27:28.720Z,12.41
2023-04-24T22:29:56.623Z,12.41
2023-04-24T22:32:23.785Z,12.41
2023-04-24T22:34:50.976Z,12.42
2023-04-24T22:37:17.686Z,12.42
2023-04-24T22:39:44.557Z,12.41
2023-04-24T22:42:11.809Z,12.39
2023-04-24T22:44:38.628Z,12.36
2023-04-24T22:47:08.582Z,12.33
2023-04-24T22:49:35.722Z,12.30
2023-04-24T22:52:05.306Z,12.27
2023-04-24T22:54:33.597Z,12.23
2023-04-24T22:57:01.061Z,12.20
2023-04-24T22:59:27.995Z,12.16
2023-04-24T23:01:54.896Z,12.12
2023-04-24T23:04:34.771Z,12.09
2023-04-24T23:07:01.838Z,12.06
2023-04-24T23:09:28.676Z,12.04
2023-04-24T23:11:55.511Z,12.01
2023-04-24T23:14:24.653Z,12.00
2023-04-24T23:16:51.627Z,11.98
2023-04-24T23:19:18.506Z,11.98
2023-04-24T23:21:45.280Z,11.97
2023-04-24T23:24:12.094Z,11.95
2023-04-24T23:26:39.045Z,11.93
2023-04-24T23:29:05.984Z,11.91
2023-04-24T23:31:32.770Z,11.91
2023-04-24T23:34:00.390Z,11.91
2023-04-24T23:36:27.438Z,11.94
2023-04-24T23:38:54.549Z,11.96
2023-04-24T23:41:21.529Z,11.95
2023-04-24T23:43:48.567Z,11.91
2023-04-24T23:46:15.744Z,11.87
2023-04-24T23:48:42.647Z,11.82
2023-04-24T23:51:09.471Z,11.77
2023-04-24T23:53:36.259Z,11.71
2023-04-24T23:56:03.141Z,11.68
2023-04-24T23:58:30.038Z,11.65
